sensor_id;sensor_type;location;lat;lon;timestamp;temperature;humidity
55721;DHT22;41626;53.098;6.168;2023-04-06T00:00:53;3.00;99.90
55721;DHT22;41626;53.098;6.168;2023-04-06T00:03:18;2.90;99.90
55721;DHT22;41626;53.098;6.168;2023-04-06T00:05:44;2.90;99.90
55721;DHT22;41626;53.098;6.168;2023-04-06T00:08:10;3.00;99.90
55721;DHT22;41626;53.098;6.168;2023-04-06T00:10:36;2.90;99.90
55721;DHT22;41626;53.098;6.168;2023-04-06T00:13:02;2.90;99.90
55721;DHT22;41626;53.098;6.168;2023-04-06T00:15:27;2.90;99.90
55721;DHT22;41626;53.098;6.168;2023-04-06T00:17:53;2.80;99.90
55721;DHT22;41626;53.098;6.168;2023-04-06T00:20:19;2.80;99.90
55721;DHT22;41626;53.098;6.168;2023-04-06T00:22:44;2.70;99.90
55721;DHT22;41626;53.098;6.168;2023-04-06T00:25:10;2.80;99.90
55721;DHT22;41626;53.098;6.168;2023-04-06T00:27:37;2.70;99.90
55721;DHT22;41626;53.098;6.168;2023-04-06T00:30:04;2.80;99.90
55721;DHT22;41626;53.098;6.168;2023-04-06T00:32:31;2.80;99.90
55721;DHT22;41626;53.098;6.168;2023-04-06T00:34:58;2.70;99.90
55721;DHT22;41626;53.098;6.168;2023-04-06T00:37:23;2.70;99.90
55721;DHT22;41626;53.098;6.168;2023-04-06T00:39:49;2.60;99.90
55721;DHT22;41626;53.098;6.168;2023-04-06T00:42:18;2.60;99.90
55721;DHT22;41626;53.098;6.168;2023-04-06T00:44:53;2.50;99.90
55721;DHT22;41626;53.098;6.168;2023-04-06T00:47:20;2.40;99.90
55721;DHT22;41626;53.098;6.168;2023-04-06T00:49:46;2.50;99.90
55721;DHT22;41626;53.098;6.168;2023-04-06T00:52:12;2.40;99.90
55721;DHT22;41626;53.098;6.168;2023-04-06T00:54:38;2.40;99.90
55721;DHT22;41626;53.098;6.168;2023-04-06T00:57:03;2.50;99.90
55721;DHT22;41626;53.098;6.168;2023-04-06T00:59:29;2.40;99.90
55721;DHT22;41626;53.098;6.168;2023-04-06T01:01:55;2.40;99.90
55721;DHT22;41626;53.098;6.168;2023-04-06T01:04:21;2.30;99.90
55721;DHT22;41626;53.098;6.168;2023-04-06T01:06:49;2.30;99.90
55721;DHT22;41626;53.098;6.168;2023-04-06T01:09:15;2.30;99.90
55721;DHT22;41626;53.098;6.168;2023-04-06T01:11:41;2.30;99.90
55721;DHT22;41626;53.098;6.168;2023-04-06T01:14:07;2.30;99.90
55721;DHT22;41626;53.098;6.168;2023-04-06T01:16:33;2.30;99.90
55721;DHT22;41626;53.098;6.168;2023-04-06T01:18:59;2.30;99.90
55721;DHT22;41626;53.098;6.168;2023-04-06T01:21:24;2.20;99.90
55721;DHT22;41626;53.098;6.168;2023-04-06T01:23:50;2.20;99.90
55721;DHT22;41626;53.098;6.168;2023-04-06T01:26:16;2.10;99.90
55721;DHT22;41626;53.098;6.168;2023-04-06T01:28:42;2.10;99.90
55721;DHT22;41626;53.098;6.168;2023-04-06T01:31:08;2.10;99.90
55721;DHT22;41626;53.098;6.168;2023-04-06T01:33:34;2.20;99.90
55721;DHT22;41626;53.098;6.168;2023-04-06T01:36:00;2.20;99.90
55721;DHT22;41626;53.098;6.168;2023-04-06T01:38:26;2.20;99.90
55721;DHT22;41626;53.098;6.168;2023-04-06T01:40:53;2.20;99.90
55721;DHT22;41626;53.098;6.168;2023-04-06T01:43:18;2.20;99.90
55721;DHT22;41626;53.098;6.168;2023-04-06T01:45:44;2.20;99.90
55721;DHT22;41626;53.098;6.168;2023-04-06T01:48:10;2.20;99.90
55721;DHT22;41626;53.098;6.168;2023-04-06T01:50:35;2.20;99.90
55721;DHT22;41626;53.098;6.168;2023-04-06T01:53:01;2.20;99.90
55721;DHT22;41626;53.098;6.168;2023-04-06T01:55:27;2.20;99.90
55721;DHT22;41626;53.098;6.168;2023-04-06T01:57:53;2.20;99.90
55721;DHT22;41626;53.098;6.168;2023-04-06T02:00:18;2.20;99.90
55721;DHT22;41626;53.098;6.168;2023-04-06T02:02:44;2.10;99.90
55721;DHT22;41626;53.098;6.168;2023-04-06T02:05:11;2.10;99.90
55721;DHT22;41626;53.098;6.168;2023-04-06T02:07:36;2.10;99.90
55721;DHT22;41626;53.098;6.168;2023-04-06T02:10:03;2.10;99.90
55721;DHT22;41626;53.098;6.168;2023-04-06T02:12:28;2.10;99.90
55721;DHT22;41626;53.098;6.168;2023-04-06T02:14:54;2.00;99.90
55721;DHT22;41626;53.098;6.168;2023-04-06T02:17:20;2.00;99.90
55721;DHT22;41626;53.098;6.168;2023-04-06T02:19:45;2.00;99.90
55721;DHT22;41626;53.098;6.168;2023-04-06T02:22:11;2.00;99.90
55721;DHT22;41626;53.098;6.168;2023-04-06T02:24:37;2.00;99.90
55721;DHT22;41626;53.098;6.168;2023-04-06T02:27:03;2.00;99.90
55721;DHT22;41626;53.098;6.168;2023-04-06T02:29:28;1.90;99.90
55721;DHT22;41626;53.098;6.168;2023-04-06T02:31:54;1.90;99.90
55721;DHT22;41626;53.098;6.168;2023-04-06T02:34:20;1.90;99.90
55721;DHT22;41626;53.098;6.168;2023-04-06T02:36:46;1.90;99.90
55721;DHT22;41626;53.098;6.168;2023-04-06T02:39:14;1.90;99.90
55721;DHT22;41626;53.098;6.168;2023-04-06T02:41:40;1.90;99.90
55721;DHT22;41626;53.098;6.168;2023-04-06T02:44:08;1.80;99.90
55721;DHT22;41626;53.098;6.168;2023-04-06T02:46:34;1.80;99.90
55721;DHT22;41626;53.098;6.168;2023-04-06T02:49:00;1.80;99.90
55721;DHT22;41626;53.098;6.168;2023-04-06T02:51:26;1.80;99.90
55721;DHT22;41626;53.098;6.168;2023-04-06T02:53:52;1.80;99.90
55721;DHT22;41626;53.098;6.168;2023-04-06T02:56:18;1.90;99.90
55721;DHT22;41626;53.098;6.168;2023-04-06T02:58:45;1.80;99.90
55721;DHT22;41626;53.098;6.168;2023-04-06T03:01:11;1.80;99.90
55721;DHT22;41626;53.098;6.168;2023-04-06T03:03:36;1.80;99.90
55721;DHT22;41626;53.098;6.168;2023-04-06T03:06:02;1.70;99.90
55721;DHT22;41626;53.098;6.168;2023-04-06T03:08:28;1.70;99.90
55721;DHT22;41626;53.098;6.168;2023-04-06T03:10:54;1.80;99.90
55721;DHT22;41626;53.098;6.168;2023-04-06T03:13:20;1.70;99.90
55721;DHT22;41626;53.098;6.168;2023-04-06T03:15:46;1.70;99.90
55721;DHT22;41626;53.098;6.168;2023-04-06T03:18:11;1.70;99.90
55721;DHT22;41626;53.098;6.168;2023-04-06T03:20:37;1.70;99.90
55721;DHT22;41626;53.098;6.168;2023-04-06T03:23:03;1.70;99.90
55721;DHT22;41626;53.098;6.168;2023-04-06T03:25:29;1.60;99.90
55721;DHT22;41626;53.098;6.168;2023-04-06T03:27:56;1.70;99.90
55721;DHT22;41626;53.098;6.168;2023-04-06T03:30:21;1.60;99.90
55721;DHT22;41626;53.098;6.168;2023-04-06T03:32:47;1.60;99.90
55721;DHT22;41626;53.098;6.168;2023-04-06T03:35:13;1.50;99.90
55721;DHT22;41626;53.098;6.168;2023-04-06T03:37:38;1.50;99.90
55721;DHT22;41626;53.098;6.168;2023-04-06T03:40:06;1.50;99.90
55721;DHT22;41626;53.098;6.168;2023-04-06T03:42:32;1.50;99.90
55721;DHT22;41626;53.098;6.168;2023-04-06T03:44:58;1.50;99.90
55721;DHT22;41626;53.098;6.168;2023-04-06T03:47:24;1.40;99.90
55721;DHT22;41626;53.098;6.168;2023-04-06T03:49:50;1.50;99.90
55721;DHT22;41626;53.098;6.168;2023-04-06T03:52:16;1.40;99.90
55721;DHT22;41626;53.098;6.168;2023-04-06T03:54:42;1.40;99.90
55721;DHT22;41626;53.098;6.168;2023-04-06T03:57:07;1.40;99.90
55721;DHT22;41626;53.098;6.168;2023-04-06T03:59:33;1.40;99.90
55721;DHT22;41626;53.098;6.168;2023-04-06T04:01:59;1.40;99.90
55721;DHT22;41626;53.098;6.168;2023-04-06T04:04:24;1.30;99.90
55721;DHT22;41626;53.098;6.168;2023-04-06T04:06:50;1.30;99.90
55721;DHT22;41626;53.098;6.168;2023-04-06T04:09:16;1.30;99.90
55721;DHT22;41626;53.098;6.168;2023-04-06T04:11:41;1.30;99.90
55721;DHT22;41626;53.098;6.168;2023-04-06T04:14:07;1.30;99.90
55721;DHT22;41626;53.098;6.168;2023-04-06T04:16:33;1.30;99.90
55721;DHT22;41626;53.098;6.168;2023-04-06T04:18:58;1.30;99.90
55721;DHT22;41626;53.098;6.168;2023-04-06T04:21:24;1.20;99.90
55721;DHT22;41626;53.098;6.168;2023-04-06T04:23:51;1.20;99.90
55721;DHT22;41626;53.098;6.168;2023-04-06T04:26:18;1.20;99.90
55721;DHT22;41626;53.098;6.168;2023-04-06T04:28:44;1.20;99.90
55721;DHT22;41626;53.098;6.168;2023-04-06T04:31:09;1.20;99.90
55721;DHT22;41626;53.098;6.168;2023-04-06T04:33:35;1.10;99.90
55721;DHT22;41626;53.098;6.168;2023-04-06T04:36:01;1.20;99.90
55721;DHT22;41626;53.098;6.168;2023-04-06T04:38:27;1.10;99.90
55721;DHT22;41626;53.098;6.168;2023-04-06T04:40:52;1.20;99.90
55721;DHT22;41626;53.098;6.168;2023-04-06T04:43:18;1.10;99.90
55721;DHT22;41626;53.098;6.168;2023-04-06T04:45:44;1.10;99.90
55721;DHT22;41626;53.098;6.168;2023-04-06T04:48:10;1.10;99.90
55721;DHT22;41626;53.098;6.168;2023-04-06T04:50:35;1.20;99.90
55721;DHT22;41626;53.098;6.168;2023-04-06T04:53:01;1.10;99.90
55721;DHT22;41626;53.098;6.168;2023-04-06T04:55:27;1.10;99.90
55721;DHT22;41626;53.098;6.168;2023-04-06T04:57:54;1.10;99.90
55721;DHT22;41626;53.098;6.168;2023-04-06T05:00:20;1.20;99.90
55721;DHT22;41626;53.098;6.168;2023-04-06T05:02:46;1.10;99.90
55721;DHT22;41626;53.098;6.168;2023-04-06T05:05:11;1.10;99.90
55721;DHT22;41626;53.098;6.168;2023-04-06T05:07:37;1.10;99.90
55721;DHT22;41626;53.098;6.168;2023-04-06T05:10:03;1.20;99.90
55721;DHT22;41626;53.098;6.168;2023-04-06T05:12:29;1.10;99.90
55721;DHT22;41626;53.098;6.168;2023-04-06T05:14:54;1.20;99.90
55721;DHT22;41626;53.098;6.168;2023-04-06T05:17:20;1.20;99.90
55721;DHT22;41626;53.098;6.168;2023-04-06T05:19:46;1.30;99.90
55721;DHT22;41626;53.098;6.168;2023-04-06T05:22:11;1.30;99.90
55721;DHT22;41626;53.098;6.168;2023-04-06T05:24:39;1.30;99.90
55721;DHT22;41626;53.098;6.168;2023-04-06T05:27:05;1.40;99.90
55721;DHT22;41626;53.098;6.168;2023-04-06T05:29:31;1.70;99.90
55721;DHT22;41626;53.098;6.168;2023-04-06T05:31:57;2.00;99.90
55721;DHT22;41626;53.098;6.168;2023-04-06T05:34:22;2.20;99.90
55721;DHT22;41626;53.098;6.168;2023-04-06T05:36:48;2.20;99.90
55721;DHT22;41626;53.098;6.168;2023-04-06T05:39:14;2.10;99.90
55721;DHT22;41626;53.098;6.168;2023-04-06T05:41:40;2.60;99.90
55721;DHT22;41626;53.098;6.168;2023-04-06T05:44:05;2.20;99.90
55721;DHT22;41626;53.098;6.168;2023-04-06T05:46:31;2.10;99.90
55721;DHT22;41626;53.098;6.168;2023-04-06T05:48:57;2.00;99.90
55721;DHT22;41626;53.098;6.168;2023-04-06T05:51:22;2.10;99.90
55721;DHT22;41626;53.098;6.168;2023-04-06T05:53:48;2.20;99.90
55721;DHT22;41626;53.098;6.168;2023-04-06T05:56:14;2.30;99.90
55721;DHT22;41626;53.098;6.168;2023-04-06T05:58:39;2.20;99.90
55721;DHT22;41626;53.098;6.168;2023-04-06T06:01:05;2.30;99.90
55721;DHT22;41626;53.098;6.168;2023-04-06T06:03:31;2.40;99.90
55721;DHT22;41626;53.098;6.168;2023-04-06T06:06:00;2.30;99.90
55721;DHT22;41626;53.098;6.168;2023-04-06T06:08:27;2.50;99.90
55721;DHT22;41626;53.098;6.168;2023-04-06T06:10:53;2.70;99.90
55721;DHT22;41626;53.098;6.168;2023-04-06T06:13:18;2.70;99.90
55721;DHT22;41626;53.098;6.168;2023-04-06T06:15:44;2.80;99.90
55721;DHT22;41626;53.098;6.168;2023-04-06T06:18:10;2.70;99.90
55721;DHT22;41626;53.098;6.168;2023-04-06T06:20:35;2.80;99.90
55721;DHT22;41626;53.098;6.168;2023-04-06T06:23:01;2.90;99.90
55721;DHT22;41626;53.098;6.168;2023-04-06T06:25:27;3.10;99.90
55721;DHT22;41626;53.098;6.168;2023-04-06T06:27:52;3.60;99.90
55721;DHT22;41626;53.098;6.168;2023-04-06T06:30:18;3.80;99.90
55721;DHT22;41626;53.098;6.168;2023-04-06T06:32:44;4.00;99.90
55721;DHT22;41626;53.098;6.168;2023-04-06T06:35:09;3.90;99.90
55721;DHT22;41626;53.098;6.168;2023-04-06T06:37:35;4.00;99.90
55721;DHT22;41626;53.098;6.168;2023-04-06T06:40:01;4.10;99.90
55721;DHT22;41626;53.098;6.168;2023-04-06T06:42:26;3.90;99.90
55721;DHT22;41626;53.098;6.168;2023-04-06T06:44:54;3.90;99.90
55721;DHT22;41626;53.098;6.168;2023-04-06T06:47:19;4.10;99.90
55721;DHT22;41626;53.098;6.168;2023-04-06T06:49:45;4.40;99.90
55721;DHT22;41626;53.098;6.168;2023-04-06T06:52:10;4.80;99.90
55721;DHT22;41626;53.098;6.168;2023-04-06T06:54:36;5.00;99.90
55721;DHT22;41626;53.098;6.168;2023-04-06T06:57:02;5.00;99.90
55721;DHT22;41626;53.098;6.168;2023-04-06T06:59:27;5.70;99.90
55721;DHT22;41626;53.098;6.168;2023-04-06T07:01:53;6.10;99.90
55721;DHT22;41626;53.098;6.168;2023-04-06T07:04:19;6.80;99.90
55721;DHT22;41626;53.098;6.168;2023-04-06T07:06:45;6.10;99.90
55721;DHT22;41626;53.098;6.168;2023-04-06T07:09:10;5.90;99.90
55721;DHT22;41626;53.098;6.168;2023-04-06T07:11:36;5.40;99.90
55721;DHT22;41626;53.098;6.168;2023-04-06T07:14:02;5.40;99.90
55721;DHT22;41626;53.098;6.168;2023-04-06T07:16:27;5.30;99.90
55721;DHT22;41626;53.098;6.168;2023-04-06T07:18:53;5.40;99.90
55721;DHT22;41626;53.098;6.168;2023-04-06T07:21:19;5.50;99.90
55721;DHT22;41626;53.098;6.168;2023-04-06T07:23:44;5.60;99.90
55721;DHT22;41626;53.098;6.168;2023-04-06T07:26:10;5.80;99.90
55721;DHT22;41626;53.098;6.168;2023-04-06T07:28:36;5.80;99.90
55721;DHT22;41626;53.098;6.168;2023-04-06T07:31:01;6.00;99.90
55721;DHT22;41626;53.098;6.168;2023-04-06T07:33:27;6.20;99.90
55721;DHT22;41626;53.098;6.168;2023-04-06T07:35:55;6.30;99.90
55721;DHT22;41626;53.098;6.168;2023-04-06T07:38:22;6.40;99.90
55721;DHT22;41626;53.098;6.168;2023-04-06T07:40:47;6.50;99.90
55721;DHT22;41626;53.098;6.168;2023-04-06T07:43:13;6.40;99.90
55721;DHT22;41626;53.098;6.168;2023-04-06T07:45:39;6.80;99.90
55721;DHT22;41626;53.098;6.168;2023-04-06T07:48:04;6.70;99.90
55721;DHT22;41626;53.098;6.168;2023-04-06T07:50:30;7.00;99.90
55721;DHT22;41626;53.098;6.168;2023-04-06T07:52:56;7.20;99.90
55721;DHT22;41626;53.098;6.168;2023-04-06T07:55:23;7.40;99.90
55721;DHT22;41626;53.098;6.168;2023-04-06T07:57:48;7.30;99.90
55721;DHT22;41626;53.098;6.168;2023-04-06T08:00:14;7.60;99.90
55721;DHT22;41626;53.098;6.168;2023-04-06T08:02:40;7.70;99.90
55721;DHT22;41626;53.098;6.168;2023-04-06T08:05:06;8.00;99.90
55721;DHT22;41626;53.098;6.168;2023-04-06T08:07:32;8.00;99.90
55721;DHT22;41626;53.098;6.168;2023-04-06T08:09:58;8.40;99.90
55721;DHT22;41626;53.098;6.168;2023-04-06T08:12:23;8.40;99.90
55721;DHT22;41626;53.098;6.168;2023-04-06T08:14:49;8.20;99.90
55721;DHT22;41626;53.098;6.168;2023-04-06T08:17:15;8.30;99.90
55721;DHT22;41626;53.098;6.168;2023-04-06T08:19:43;8.30;99.90
55721;DHT22;41626;53.098;6.168;2023-04-06T08:22:10;8.30;99.90
55721;DHT22;41626;53.098;6.168;2023-04-06T08:24:36;8.40;99.90
55721;DHT22;41626;53.098;6.168;2023-04-06T08:27:01;8.50;99.90
55721;DHT22;41626;53.098;6.168;2023-04-06T08:29:27;8.50;99.90
55721;DHT22;41626;53.098;6.168;2023-04-06T08:31:52;8.70;99.90
55721;DHT22;41626;53.098;6.168;2023-04-06T08:34:18;8.50;99.90
55721;DHT22;41626;53.098;6.168;2023-04-06T08:36:44;8.40;99.90
55721;DHT22;41626;53.098;6.168;2023-04-06T08:39:11;8.50;99.90
55721;DHT22;41626;53.098;6.168;2023-04-06T08:41:37;8.80;99.90
55721;DHT22;41626;53.098;6.168;2023-04-06T08:44:02;8.80;99.90
55721;DHT22;41626;53.098;6.168;2023-04-06T08:46:29;9.00;99.90
55721;DHT22;41626;53.098;6.168;2023-04-06T08:49:02;9.20;99.90
55721;DHT22;41626;53.098;6.168;2023-04-06T08:51:29;9.60;99.90
55721;DHT22;41626;53.098;6.168;2023-04-06T08:53:59;9.40;99.90
55721;DHT22;41626;53.098;6.168;2023-04-06T08:56:26;9.80;99.90
55721;DHT22;41626;53.098;6.168;2023-04-06T08:58:53;10.10;99.90
55721;DHT22;41626;53.098;6.168;2023-04-06T09:01:29;10.00;99.90
55721;DHT22;41626;53.098;6.168;2023-04-06T09:03:58;9.70;99.90
55721;DHT22;41626;53.098;6.168;2023-04-06T09:06:26;9.90;99.90
55721;DHT22;41626;53.098;6.168;2023-04-06T09:08:56;9.80;99.90
55721;DHT22;41626;53.098;6.168;2023-04-06T09:11:22;10.10;99.90
55721;DHT22;41626;53.098;6.168;2023-04-06T09:13:50;10.20;99.90
55721;DHT22;41626;53.098;6.168;2023-04-06T09:16:16;9.90;99.90
55721;DHT22;41626;53.098;6.168;2023-04-06T09:18:42;10.40;99.90
55721;DHT22;41626;53.098;6.168;2023-04-06T09:21:09;10.20;99.90
55721;DHT22;41626;53.098;6.168;2023-04-06T09:23:35;10.20;99.90
55721;DHT22;41626;53.098;6.168;2023-04-06T09:26:17;10.40;99.90
55721;DHT22;41626;53.098;6.168;2023-04-06T09:28:57;10.60;99.90
55721;DHT22;41626;53.098;6.168;2023-04-06T09:31:24;10.30;99.90
55721;DHT22;41626;53.098;6.168;2023-04-06T09:33:51;10.40;99.90
55721;DHT22;41626;53.098;6.168;2023-04-06T09:36:20;10.50;99.90
55721;DHT22;41626;53.098;6.168;2023-04-06T09:38:59;10.70;99.90
55721;DHT22;41626;53.098;6.168;2023-04-06T09:41:32;11.00;99.90
55721;DHT22;41626;53.098;6.168;2023-04-06T09:44:03;11.10;99.90
55721;DHT22;41626;53.098;6.168;2023-04-06T09:46:42;11.20;99.90
55721;DHT22;41626;53.098;6.168;2023-04-06T09:49:09;11.30;99.90
55721;DHT22;41626;53.098;6.168;2023-04-06T09:54:04;11.30;99.90
55721;DHT22;41626;53.098;6.168;2023-04-06T09:56:37;11.40;99.90
55721;DHT22;41626;53.098;6.168;2023-04-06T09:59:08;11.50;99.90
55721;DHT22;41626;53.098;6.168;2023-04-06T10:01:38;11.50;99.90
55721;DHT22;41626;53.098;6.168;2023-04-06T10:04:29;11.80;99.90
55721;DHT22;41626;53.098;6.168;2023-04-06T10:06:59;11.60;99.90
55721;DHT22;41626;53.098;6.168;2023-04-06T10:09:28;11.80;99.90
55721;DHT22;41626;53.098;6.168;2023-04-06T10:12:05;11.80;99.90
55721;DHT22;41626;53.098;6.168;2023-04-06T10:14:34;12.10;99.90
55721;DHT22;41626;53.098;6.168;2023-04-06T10:17:05;11.80;99.90
55721;DHT22;41626;53.098;6.168;2023-04-06T10:20:07;11.90;99.90
55721;DHT22;41626;53.098;6.168;2023-04-06T10:22:44;12.10;99.90
55721;DHT22;41626;53.098;6.168;2023-04-06T10:25:16;12.20;99.90
55721;DHT22;41626;53.098;6.168;2023-04-06T10:27:42;12.30;99.90
55721;DHT22;41626;53.098;6.168;2023-04-06T10:30:07;12.40;99.90
55721;DHT22;41626;53.098;6.168;2023-04-06T10:32:37;12.40;99.90
55721;DHT22;41626;53.098;6.168;2023-04-06T10:37:50;12.40;99.90
55721;DHT22;41626;53.098;6.168;2023-04-06T10:40:20;12.50;99.90
55721;DHT22;41626;53.098;6.168;2023-04-06T10:42:47;12.30;99.90
55721;DHT22;41626;53.098;6.168;2023-04-06T10:45:23;12.10;99.90
55721;DHT22;41626;53.098;6.168;2023-04-06T10:47:52;12.10;99.90
55721;DHT22;41626;53.098;6.168;2023-04-06T10:50:17;12.10;99.90
55721;DHT22;41626;53.098;6.168;2023-04-06T10:52:46;12.00;99.90
55721;DHT22;41626;53.098;6.168;2023-04-06T10:55:16;11.90;99.90
55721;DHT22;41626;53.098;6.168;2023-04-06T10:57:42;12.10;99.90
55721;DHT22;41626;53.098;6.168;2023-04-06T11:00:08;12.30;99.90
55721;DHT22;41626;53.098;6.168;2023-04-06T11:02:35;12.00;99.90
55721;DHT22;41626;53.098;6.168;2023-04-06T11:05:03;12.20;99.90
55721;DHT22;41626;53.098;6.168;2023-04-06T11:07:29;12.20;99.90
55721;DHT22;41626;53.098;6.168;2023-04-06T11:09:56;12.30;99.90
55721;DHT22;41626;53.098;6.168;2023-04-06T11:12:27;12.30;99.90
55721;DHT22;41626;53.098;6.168;2023-04-06T11:14:57;12.30;99.90
55721;DHT22;41626;53.098;6.168;2023-04-06T11:17:36;12.40;99.90
55721;DHT22;41626;53.098;6.168;2023-04-06T11:20:03;12.50;99.90
55721;DHT22;41626;53.098;6.168;2023-04-06T11:22:31;12.30;99.90
55721;DHT22;41626;53.098;6.168;2023-04-06T11:25:06;12.40;99.90
55721;DHT22;41626;53.098;6.168;2023-04-06T11:27:33;12.40;99.90
55721;DHT22;41626;53.098;6.168;2023-04-06T11:30:00;12.60;99.90
55721;DHT22;41626;53.098;6.168;2023-04-06T11:32:26;12.60;99.90
55721;DHT22;41626;53.098;6.168;2023-04-06T11:34:52;12.90;99.90
55721;DHT22;41626;53.098;6.168;2023-04-06T11:37:17;12.60;99.90
55721;DHT22;41626;53.098;6.168;2023-04-06T11:39:46;12.50;99.90
55721;DHT22;41626;53.098;6.168;2023-04-06T11:42:20;12.70;99.90
55721;DHT22;41626;53.098;6.168;2023-04-06T11:44:46;12.80;99.90
55721;DHT22;41626;53.098;6.168;2023-04-06T11:47:12;12.90;99.90
55721;DHT22;41626;53.098;6.168;2023-04-06T11:49:40;13.20;99.90
55721;DHT22;41626;53.098;6.168;2023-04-06T11:52:16;12.90;99.90
55721;DHT22;41626;53.098;6.168;2023-04-06T11:54:42;13.00;99.90
55721;DHT22;41626;53.098;6.168;2023-04-06T11:57:08;12.80;99.90
55721;DHT22;41626;53.098;6.168;2023-04-06T11:59:34;13.00;99.90
55721;DHT22;41626;53.098;6.168;2023-04-06T12:02:03;12.80;99.90
55721;DHT22;41626;53.098;6.168;2023-04-06T12:04:29;13.10;99.90
55721;DHT22;41626;53.098;6.168;2023-04-06T12:06:55;13.20;99.90
55721;DHT22;41626;53.098;6.168;2023-04-06T12:09:21;13.40;99.90
55721;DHT22;41626;53.098;6.168;2023-04-06T12:11:47;13.40;99.90
55721;DHT22;41626;53.098;6.168;2023-04-06T12:14:13;13.30;99.90
55721;DHT22;41626;53.098;6.168;2023-04-06T12:16:39;13.20;99.90
55721;DHT22;41626;53.098;6.168;2023-04-06T12:19:06;13.60;99.90
55721;DHT22;41626;53.098;6.168;2023-04-06T12:21:33;13.30;99.90
55721;DHT22;41626;53.098;6.168;2023-04-06T12:23:59;13.50;99.90
55721;DHT22;41626;53.098;6.168;2023-04-06T12:26:26;13.70;99.90
55721;DHT22;41626;53.098;6.168;2023-04-06T12:28:52;13.80;99.90
55721;DHT22;41626;53.098;6.168;2023-04-06T12:31:19;13.60;99.90
55721;DHT22;41626;53.098;6.168;2023-04-06T12:33:49;13.80;99.90
55721;DHT22;41626;53.098;6.168;2023-04-06T12:36:16;13.70;99.90
55721;DHT22;41626;53.098;6.168;2023-04-06T12:38:44;13.50;99.90
55721;DHT22;41626;53.098;6.168;2023-04-06T12:41:11;13.60;99.90
55721;DHT22;41626;53.098;6.168;2023-04-06T12:43:37;13.30;99.90
55721;DHT22;41626;53.098;6.168;2023-04-06T12:46:03;13.50;99.90
55721;DHT22;41626;53.098;6.168;2023-04-06T12:48:29;13.60;99.90
55721;DHT22;41626;53.098;6.168;2023-04-06T12:50:59;13.10;99.90
55721;DHT22;41626;53.098;6.168;2023-04-06T12:53:25;13.30;99.90
55721;DHT22;41626;53.098;6.168;2023-04-06T12:55:51;13.30;99.90
55721;DHT22;41626;53.098;6.168;2023-04-06T12:58:17;12.80;99.90
55721;DHT22;41626;53.098;6.168;2023-04-06T13:00:43;13.00;99.90
55721;DHT22;41626;53.098;6.168;2023-04-06T13:03:09;13.20;99.90
55721;DHT22;41626;53.098;6.168;2023-04-06T13:05:34;13.00;99.90
55721;DHT22;41626;53.098;6.168;2023-04-06T13:08:00;13.00;99.90
55721;DHT22;41626;53.098;6.168;2023-04-06T13:10:26;13.00;99.90
55721;DHT22;41626;53.098;6.168;2023-04-06T13:12:52;13.20;99.90
55721;DHT22;41626;53.098;6.168;2023-04-06T13:15:17;13.00;99.90
55721;DHT22;41626;53.098;6.168;2023-04-06T13:17:43;12.80;99.90
55721;DHT22;41626;53.098;6.168;2023-04-06T13:20:09;12.80;99.90
55721;DHT22;41626;53.098;6.168;2023-04-06T13:22:35;12.40;99.90
55721;DHT22;41626;53.098;6.168;2023-04-06T13:25:01;12.20;99.90
55721;DHT22;41626;53.098;6.168;2023-04-06T13:27:27;12.30;99.90
55721;DHT22;41626;53.098;6.168;2023-04-06T13:29:54;12.50;99.90
55721;DHT22;41626;53.098;6.168;2023-04-06T13:32:20;12.40;99.90
55721;DHT22;41626;53.098;6.168;2023-04-06T13:34:45;12.50;99.90
55721;DHT22;41626;53.098;6.168;2023-04-06T13:37:13;12.80;99.90
55721;DHT22;41626;53.098;6.168;2023-04-06T13:39:39;12.50;99.90
55721;DHT22;41626;53.098;6.168;2023-04-06T13:42:04;12.40;99.90
55721;DHT22;41626;53.098;6.168;2023-04-06T13:44:30;12.30;99.90
55721;DHT22;41626;53.098;6.168;2023-04-06T13:46:56;12.10;99.90
55721;DHT22;41626;53.098;6.168;2023-04-06T13:49:22;12.00;99.90
55721;DHT22;41626;53.098;6.168;2023-04-06T13:51:48;12.20;99.90
55721;DHT22;41626;53.098;6.168;2023-04-06T13:54:13;12.00;99.90
55721;DHT22;41626;53.098;6.168;2023-04-06T13:56:39;11.90;99.90
55721;DHT22;41626;53.098;6.168;2023-04-06T13:59:05;11.80;99.90
55721;DHT22;41626;53.098;6.168;2023-04-06T14:01:31;11.50;99.90
55721;DHT22;41626;53.098;6.168;2023-04-06T14:03:56;11.60;99.90
55721;DHT22;41626;53.098;6.168;2023-04-06T14:06:22;11.50;99.90
55721;DHT22;41626;53.098;6.168;2023-04-06T14:08:47;11.50;99.90
55721;DHT22;41626;53.098;6.168;2023-04-06T14:11:14;11.50;99.90
55721;DHT22;41626;53.098;6.168;2023-04-06T14:13:40;11.00;99.90
55721;DHT22;41626;53.098;6.168;2023-04-06T14:16:06;11.10;99.90
55721;DHT22;41626;53.098;6.168;2023-04-06T14:18:32;10.90;99.90
55721;DHT22;41626;53.098;6.168;2023-04-06T14:21:00;10.80;99.90
55721;DHT22;41626;53.098;6.168;2023-04-06T14:23:27;10.70;99.90
55721;DHT22;41626;53.098;6.168;2023-04-06T14:26:03;10.60;99.90
55721;DHT22;41626;53.098;6.168;2023-04-06T14:28:30;10.40;99.90
55721;DHT22;41626;53.098;6.168;2023-04-06T14:30:56;10.30;99.90
55721;DHT22;41626;53.098;6.168;2023-04-06T14:33:22;10.40;99.90
55721;DHT22;41626;53.098;6.168;2023-04-06T14:35:47;10.40;99.90
55721;DHT22;41626;53.098;6.168;2023-04-06T14:38:13;10.20;99.90
55721;DHT22;41626;53.098;6.168;2023-04-06T14:40:39;10.20;99.90
55721;DHT22;41626;53.098;6.168;2023-04-06T14:43:04;10.30;99.90
55721;DHT22;41626;53.098;6.168;2023-04-06T14:45:33;10.30;99.90
55721;DHT22;41626;53.098;6.168;2023-04-06T14:47:58;10.20;99.90
55721;DHT22;41626;53.098;6.168;2023-04-06T14:50:24;10.30;99.90
55721;DHT22;41626;53.098;6.168;2023-04-06T14:52:50;10.10;99.90
55721;DHT22;41626;53.098;6.168;2023-04-06T14:55:16;10.20;99.90
55721;DHT22;41626;53.098;6.168;2023-04-06T14:57:41;10.00;99.90
55721;DHT22;41626;53.098;6.168;2023-04-06T15:00:07;10.00;99.90
55721;DHT22;41626;53.098;6.168;2023-04-06T15:02:34;10.00;99.90
55721;DHT22;41626;53.098;6.168;2023-04-06T15:05:00;9.80;99.90
55721;DHT22;41626;53.098;6.168;2023-04-06T15:07:26;9.70;99.90
55721;DHT22;41626;53.098;6.168;2023-04-06T15:09:51;9.70;99.90
55721;DHT22;41626;53.098;6.168;2023-04-06T15:12:17;9.80;99.90
55721;DHT22;41626;53.098;6.168;2023-04-06T15:14:43;9.80;99.90
55721;DHT22;41626;53.098;6.168;2023-04-06T15:17:08;9.70;99.90
55721;DHT22;41626;53.098;6.168;2023-04-06T15:19:34;9.50;99.90
55721;DHT22;41626;53.098;6.168;2023-04-06T15:21:59;9.60;99.90
55721;DHT22;41626;53.098;6.168;2023-04-06T15:24:25;9.40;99.90
55721;DHT22;41626;53.098;6.168;2023-04-06T15:26:51;9.40;99.90
55721;DHT22;41626;53.098;6.168;2023-04-06T15:29:16;9.40;99.90
55721;DHT22;41626;53.098;6.168;2023-04-06T15:31:42;9.10;99.90
55721;DHT22;41626;53.098;6.168;2023-04-06T15:34:08;9.20;99.90
55721;DHT22;41626;53.098;6.168;2023-04-06T15:36:34;9.20;99.90
55721;DHT22;41626;53.098;6.168;2023-04-06T15:39:00;9.10;99.90
55721;DHT22;41626;53.098;6.168;2023-04-06T15:41:26;9.10;99.90